sensor_id;sensor_type;location;lat;lon;timestamp;P1;durP1;ratioP1;P2;durP2;ratioP2
51451;SDS011;37521;52.020;-1.740;2023-08-06T00:02:00;2.83;;;1.95;;
51451;SDS011;37521;52.020;-1.740;2023-08-06T00:04:29;3.45;;;1.30;;
51451;SDS011;37521;52.020;-1.740;2023-08-06T00:07:00;4.25;;;1.85;;
51451;SDS011;37521;52.020;-1.740;2023-08-06T00:09:29;3.22;;;1.42;;
51451;SDS011;37521;52.020;-1.740;2023-08-06T00:11:58;1.88;;;1.30;;
51451;SDS011;37521;52.020;-1.740;2023-08-06T00:14:28;1.60;;;1.30;;
51451;SDS011;37521;52.020;-1.740;2023-08-06T00:16:57;1.38;;;1.20;;
51451;SDS011;37521;52.020;-1.740;2023-08-06T00:19:28;3.80;;;1.85;;
51451;SDS011;37521;52.020;-1.740;2023-08-06T00:21:57;1.73;;;1.40;;
51451;SDS011;37521;52.020;-1.740;2023-08-06T00:24:27;1.92;;;1.27;;
51451;SDS011;37521;52.020;-1.740;2023-08-06T00:26:57;4.03;;;1.80;;
51451;SDS011;37521;52.020;-1.740;2023-08-06T00:29:26;3.03;;;1.50;;
51451;SDS011;37521;52.020;-1.740;2023-08-06T00:31:55;2.95;;;1.45;;
51451;SDS011;37521;52.020;-1.740;2023-08-06T00:34:25;3.22;;;1.27;;
51451;SDS011;37521;52.020;-1.740;2023-08-06T00:36:55;1.60;;;1.33;;
51451;SDS011;37521;52.020;-1.740;2023-08-06T00:39:28;3.80;;;1.50;;
51451;SDS011;37521;52.020;-1.740;2023-08-06T00:41:58;3.97;;;2.20;;
51451;SDS011;37521;52.020;-1.740;2023-08-06T00:44:26;2.55;;;1.48;;
51451;SDS011;37521;52.020;-1.740;2023-08-06T00:46:56;8.15;;;1.58;;
51451;SDS011;37521;52.020;-1.740;2023-08-06T00:49:25;2.88;;;1.35;;
51451;SDS011;37521;52.020;-1.740;2023-08-06T00:51:54;1.98;;;1.15;;
51451;SDS011;37521;52.020;-1.740;2023-08-06T00:54:25;2.33;;;1.02;;
51451;SDS011;37521;52.020;-1.740;2023-08-06T00:56:57;3.00;;;1.50;;
51451;SDS011;37521;52.020;-1.740;2023-08-06T00:59:29;2.40;;;1.40;;
51451;SDS011;37521;52.020;-1.740;2023-08-06T01:01:59;1.85;;;1.15;;
51451;SDS011;37521;52.020;-1.740;2023-08-06T01:04:29;4.80;;;1.20;;
51451;SDS011;37521;52.020;-1.740;2023-08-06T01:07:02;1.65;;;1.15;;
51451;SDS011;37521;52.020;-1.740;2023-08-06T01:09:45;1.63;;;1.15;;
51451;SDS011;37521;52.020;-1.740;2023-08-06T01:12:25;1.85;;;1.23;;
51451;SDS011;37521;52.020;-1.740;2023-08-06T01:15:04;3.70;;;1.40;;
51451;SDS011;37521;52.020;-1.740;2023-08-06T01:17:41;2.35;;;1.48;;
51451;SDS011;37521;52.020;-1.740;2023-08-06T01:20:11;1.52;;;0.98;;
51451;SDS011;37521;52.020;-1.740;2023-08-06T01:22:41;1.60;;;1.30;;
51451;SDS011;37521;52.020;-1.740;2023-08-06T01:25:10;1.27;;;0.90;;
51451;SDS011;37521;52.020;-1.740;2023-08-06T01:30:15;1.23;;;1.13;;
51451;SDS011;37521;52.020;-1.740;2023-08-06T01:32:48;1.20;;;0.90;;
51451;SDS011;37521;52.020;-1.740;2023-08-06T01:35:22;2.13;;;0.88;;
51451;SDS011;37521;52.020;-1.740;2023-08-06T01:37:55;3.17;;;1.48;;
51451;SDS011;37521;52.020;-1.740;2023-08-06T01:40:24;3.83;;;1.58;;
51451;SDS011;37521;52.020;-1.740;2023-08-06T01:42:56;3.00;;;1.13;;
51451;SDS011;37521;52.020;-1.740;2023-08-06T01:45:25;1.63;;;1.25;;
51451;SDS011;37521;52.020;-1.740;2023-08-06T01:47:54;1.50;;;1.05;;
51451;SDS011;37521;52.020;-1.740;2023-08-06T01:50:24;2.03;;;1.48;;
51451;SDS011;37521;52.020;-1.740;2023-08-06T01:52:52;2.03;;;1.38;;
51451;SDS011;37521;52.020;-1.740;2023-08-06T01:55:23;1.52;;;1.13;;
51451;SDS011;37521;52.020;-1.740;2023-08-06T01:57:52;2.78;;;1.10;;
51451;SDS011;37521;52.020;-1.740;2023-08-06T02:00:21;2.67;;;1.15;;
51451;SDS011;37521;52.020;-1.740;2023-08-06T02:02:50;2.85;;;1.60;;
51451;SDS011;37521;52.020;-1.740;2023-08-06T02:05:19;1.80;;;1.50;;
51451;SDS011;37521;52.020;-1.740;2023-08-06T02:07:48;2.53;;;1.05;;
51451;SDS011;37521;52.020;-1.740;2023-08-06T02:10:19;1.42;;;1.25;;
51451;SDS011;37521;52.020;-1.740;2023-08-06T02:12:48;2.53;;;1.33;;
51451;SDS011;37521;52.020;-1.740;2023-08-06T02:15:18;1.08;;;1.02;;
51451;SDS011;37521;52.020;-1.740;2023-08-06T02:17:47;3.78;;;1.73;;
51451;SDS011;37521;52.020;-1.740;2023-08-06T02:20:16;1.42;;;1.17;;
51451;SDS011;37521;52.020;-1.740;2023-08-06T02:22:46;2.28;;;1.35;;
51451;SDS011;37521;52.020;-1.740;2023-08-06T02:25:16;1.23;;;0.95;;
51451;SDS011;37521;52.020;-1.740;2023-08-06T02:27:47;2.38;;;1.02;;
51451;SDS011;37521;52.020;-1.740;2023-08-06T02:30:16;4.63;;;1.65;;
51451;SDS011;37521;52.020;-1.740;2023-08-06T02:32:45;1.17;;;1.08;;
51451;SDS011;37521;52.020;-1.740;2023-08-06T02:35:14;3.33;;;1.60;;
51451;SDS011;37521;52.020;-1.740;2023-08-06T02:37:43;2.17;;;1.20;;
51451;SDS011;37521;52.020;-1.740;2023-08-06T02:40:12;2.28;;;1.73;;
51451;SDS011;37521;52.020;-1.740;2023-08-06T02:42:41;2.15;;;1.20;;
51451;SDS011;37521;52.020;-1.740;2023-08-06T02:45:12;1.55;;;1.15;;
51451;SDS011;37521;52.020;-1.740;2023-08-06T02:47:41;3.83;;;1.77;;
51451;SDS011;37521;52.020;-1.740;2023-08-06T02:50:10;1.25;;;1.13;;
51451;SDS011;37521;52.020;-1.740;2023-08-06T02:52:39;1.48;;;1.00;;
51451;SDS011;37521;52.020;-1.740;2023-08-06T02:55:09;2.90;;;1.35;;
51451;SDS011;37521;52.020;-1.740;2023-08-06T03:00:13;5.43;;;1.55;;
51451;SDS011;37521;52.020;-1.740;2023-08-06T03:02:42;1.20;;;0.88;;
51451;SDS011;37521;52.020;-1.740;2023-08-06T03:05:24;2.35;;;1.08;;
51451;SDS011;37521;52.020;-1.740;2023-08-06T03:07:53;1.10;;;1.00;;
51451;SDS011;37521;52.020;-1.740;2023-08-06T03:10:26;1.52;;;1.30;;
51451;SDS011;37521;52.020;-1.740;2023-08-06T03:12:59;2.00;;;1.37;;
51451;SDS011;37521;52.020;-1.740;2023-08-06T03:15:29;3.53;;;1.00;;
51451;SDS011;37521;52.020;-1.740;2023-08-06T03:17:58;2.88;;;1.10;;
51451;SDS011;37521;52.020;-1.740;2023-08-06T03:20:28;1.45;;;1.00;;
51451;SDS011;37521;52.020;-1.740;2023-08-06T03:22:57;2.28;;;0.88;;
51451;SDS011;37521;52.020;-1.740;2023-08-06T03:25:28;1.65;;;1.23;;
51451;SDS011;37521;52.020;-1.740;2023-08-06T03:27:58;1.42;;;1.08;;
51451;SDS011;37521;52.020;-1.740;2023-08-06T03:30:28;2.45;;;0.90;;
51451;SDS011;37521;52.020;-1.740;2023-08-06T03:32:57;3.78;;;1.60;;
51451;SDS011;37521;52.020;-1.740;2023-08-06T03:35:27;1.52;;;1.30;;
51451;SDS011;37521;52.020;-1.740;2023-08-06T03:37:56;1.42;;;1.17;;
51451;SDS011;37521;52.020;-1.740;2023-08-06T03:40:27;1.88;;;1.30;;
51451;SDS011;37521;52.020;-1.740;2023-08-06T03:42:57;1.70;;;1.60;;
51451;SDS011;37521;52.020;-1.740;2023-08-06T03:45:26;2.97;;;0.93;;
51451;SDS011;37521;52.020;-1.740;2023-08-06T03:47:57;3.72;;;1.52;;
51451;SDS011;37521;52.020;-1.740;2023-08-06T03:50:26;1.15;;;0.95;;
51451;SDS011;37521;52.020;-1.740;2023-08-06T03:52:55;1.13;;;0.80;;
51451;SDS011;37521;52.020;-1.740;2023-08-06T03:55:24;0.98;;;0.88;;
51451;SDS011;37521;52.020;-1.740;2023-08-06T03:57:53;1.75;;;1.20;;
51451;SDS011;37521;52.020;-1.740;2023-08-06T04:00:22;3.17;;;1.33;;
51451;SDS011;37521;52.020;-1.740;2023-08-06T04:02:54;1.52;;;0.85;;
51451;SDS011;37521;52.020;-1.740;2023-08-06T04:05:24;1.73;;;1.00;;
51451;SDS011;37521;52.020;-1.740;2023-08-06T04:07:58;1.10;;;0.73;;
51451;SDS011;37521;52.020;-1.740;2023-08-06T04:10:27;3.50;;;1.17;;
51451;SDS011;37521;52.020;-1.740;2023-08-06T04:12:56;3.67;;;1.35;;
51451;SDS011;37521;52.020;-1.740;2023-08-06T04:15:25;2.03;;;1.27;;
51451;SDS011;37521;52.020;-1.740;2023-08-06T04:17:55;3.00;;;1.27;;
51451;SDS011;37521;52.020;-1.740;2023-08-06T04:20:25;1.63;;;1.15;;
51451;SDS011;37521;52.020;-1.740;2023-08-06T04:22:54;2.78;;;1.38;;
51451;SDS011;37521;52.020;-1.740;2023-08-06T04:25:23;1.35;;;1.10;;
51451;SDS011;37521;52.020;-1.740;2023-08-06T04:27:52;1.23;;;0.95;;
51451;SDS011;37521;52.020;-1.740;2023-08-06T04:30:21;3.05;;;1.35;;
51451;SDS011;37521;52.020;-1.740;2023-08-06T04:32:51;1.00;;;0.73;;
51451;SDS011;37521;52.020;-1.740;2023-08-06T04:35:22;1.70;;;1.10;;
51451;SDS011;37521;52.020;-1.740;2023-08-06T04:37:51;2.13;;;0.93;;
51451;SDS011;37521;52.020;-1.740;2023-08-06T04:40:21;4.10;;;1.00;;
51451;SDS011;37521;52.020;-1.740;2023-08-06T04:42:50;3.67;;;1.02;;
51451;SDS011;37521;52.020;-1.740;2023-08-06T04:45:19;1.63;;;1.25;;
51451;SDS011;37521;52.020;-1.740;2023-08-06T04:47:48;1.95;;;1.00;;
51451;SDS011;37521;52.020;-1.740;2023-08-06T04:50:17;1.98;;;1.02;;
51451;SDS011;37521;52.020;-1.740;2023-08-06T04:52:48;1.65;;;1.02;;
51451;SDS011;37521;52.020;-1.740;2023-08-06T04:55:17;1.05;;;0.95;;
51451;SDS011;37521;52.020;-1.740;2023-08-06T04:57:46;2.88;;;1.10;;
51451;SDS011;37521;52.020;-1.740;2023-08-06T05:00:15;6.55;;;1.25;;
51451;SDS011;37521;52.020;-1.740;2023-08-06T05:02:44;3.08;;;1.30;;
51451;SDS011;37521;52.020;-1.740;2023-08-06T05:05:13;2.45;;;1.10;;
51451;SDS011;37521;52.020;-1.740;2023-08-06T05:07:42;1.20;;;0.95;;
51451;SDS011;37521;52.020;-1.740;2023-08-06T05:10:16;1.63;;;1.30;;
51451;SDS011;37521;52.020;-1.740;2023-08-06T05:12:45;1.13;;;0.88;;
51451;SDS011;37521;52.020;-1.740;2023-08-06T05:15:15;2.10;;;0.90;;
51451;SDS011;37521;52.020;-1.740;2023-08-06T05:17:44;1.45;;;1.00;;
51451;SDS011;37521;52.020;-1.740;2023-08-06T05:20:13;1.55;;;0.82;;
51451;SDS011;37521;52.020;-1.740;2023-08-06T05:22:44;3.00;;;0.90;;
51451;SDS011;37521;52.020;-1.740;2023-08-06T05:25:13;0.82;;;0.82;;
51451;SDS011;37521;52.020;-1.740;2023-08-06T05:27:45;2.83;;;0.70;;
51451;SDS011;37521;52.020;-1.740;2023-08-06T05:30:15;1.55;;;0.60;;
51451;SDS011;37521;52.020;-1.740;2023-08-06T05:32:45;3.10;;;1.10;;
51451;SDS011;37521;52.020;-1.740;2023-08-06T05:35:14;2.03;;;1.20;;
51451;SDS011;37521;52.020;-1.740;2023-08-06T05:37:43;1.08;;;0.80;;
51451;SDS011;37521;52.020;-1.740;2023-08-06T05:40:13;2.17;;;0.82;;
51451;SDS011;37521;52.020;-1.740;2023-08-06T05:42:48;1.48;;;0.70;;
51451;SDS011;37521;52.020;-1.740;2023-08-06T05:45:20;1.10;;;0.80;;
51451;SDS011;37521;52.020;-1.740;2023-08-06T05:47:49;1.52;;;0.93;;
51451;SDS011;37521;52.020;-1.740;2023-08-06T05:50:21;2.03;;;0.63;;
51451;SDS011;37521;52.020;-1.740;2023-08-06T05:52:50;1.20;;;0.80;;
51451;SDS011;37521;52.020;-1.740;2023-08-06T05:55:19;1.33;;;1.05;;
51451;SDS011;37521;52.020;-1.740;2023-08-06T05:57:50;2.88;;;0.88;;
51451;SDS011;37521;52.020;-1.740;2023-08-06T06:00:22;5.32;;;1.00;;
51451;SDS011;37521;52.020;-1.740;2023-08-06T06:02:51;3.95;;;0.73;;
51451;SDS011;37521;52.020;-1.740;2023-08-06T06:05:20;0.73;;;0.57;;
51451;SDS011;37521;52.020;-1.740;2023-08-06T06:07:49;1.63;;;0.80;;
51451;SDS011;37521;52.020;-1.740;2023-08-06T06:10:18;1.98;;;0.65;;
51451;SDS011;37521;52.020;-1.740;2023-08-06T06:12:48;0.55;;;0.55;;
51451;SDS011;37521;52.020;-1.740;2023-08-06T06:15:19;1.13;;;0.77;;
51451;SDS011;37521;52.020;-1.740;2023-08-06T06:17:48;2.08;;;0.70;;
51451;SDS011;37521;52.020;-1.740;2023-08-06T06:20:17;1.10;;;0.70;;
51451;SDS011;37521;52.020;-1.740;2023-08-06T06:22:46;0.77;;;0.75;;
51451;SDS011;37521;52.020;-1.740;2023-08-06T06:25:15;0.63;;;0.63;;
51451;SDS011;37521;52.020;-1.740;2023-08-06T06:27:43;1.25;;;1.15;;
51451;SDS011;37521;52.020;-1.740;2023-08-06T06:30:16;0.68;;;0.57;;
51451;SDS011;37521;52.020;-1.740;2023-08-06T06:32:45;1.02;;;0.80;;
51451;SDS011;37521;52.020;-1.740;2023-08-06T06:35:20;1.88;;;1.15;;
51451;SDS011;37521;52.020;-1.740;2023-08-06T06:37:56;3.65;;;0.70;;
51451;SDS011;37521;52.020;-1.740;2023-08-06T06:40:25;1.00;;;0.75;;
51451;SDS011;37521;52.020;-1.740;2023-08-06T06:42:54;0.77;;;0.75;;
51451;SDS011;37521;52.020;-1.740;2023-08-06T06:45:26;1.92;;;0.88;;
51451;SDS011;37521;52.020;-1.740;2023-08-06T06:47:59;2.47;;;0.50;;
51451;SDS011;37521;52.020;-1.740;2023-08-06T06:50:28;1.48;;;0.60;;
51451;SDS011;37521;52.020;-1.740;2023-08-06T06:52:57;1.92;;;0.65;;
51451;SDS011;37521;52.020;-1.740;2023-08-06T06:55:26;0.90;;;0.60;;
51451;SDS011;37521;52.020;-1.740;2023-08-06T06:57:55;1.65;;;0.90;;
51451;SDS011;37521;52.020;-1.740;2023-08-06T07:00:27;0.90;;;0.75;;
51451;SDS011;37521;52.020;-1.740;2023-08-06T07:02:56;0.70;;;0.70;;
51451;SDS011;37521;52.020;-1.740;2023-08-06T07:05:25;0.80;;;0.70;;
51451;SDS011;37521;52.020;-1.740;2023-08-06T07:07:54;0.60;;;0.60;;
51451;SDS011;37521;52.020;-1.740;2023-08-06T07:10:23;0.98;;;0.70;;
51451;SDS011;37521;52.020;-1.740;2023-08-06T07:13:07;0.82;;;0.73;;
51451;SDS011;37521;52.020;-1.740;2023-08-06T07:15:45;1.05;;;0.95;;
51451;SDS011;37521;52.020;-1.740;2023-08-06T07:18:44;4.32;;;0.77;;
51451;SDS011;37521;52.020;-1.740;2023-08-06T07:23:48;2.35;;;0.90;;
51451;SDS011;37521;52.020;-1.740;2023-08-06T07:26:21;3.05;;;0.90;;
51451;SDS011;37521;52.020;-1.740;2023-08-06T07:28:52;0.93;;;0.52;;
51451;SDS011;37521;52.020;-1.740;2023-08-06T07:31:36;0.93;;;0.63;;
51451;SDS011;37521;52.020;-1.740;2023-08-06T07:34:16;2.10;;;0.75;;
51451;SDS011;37521;52.020;-1.740;2023-08-06T07:36:48;1.48;;;0.93;;
51451;SDS011;37521;52.020;-1.740;2023-08-06T07:39:18;0.93;;;0.63;;
51451;SDS011;37521;52.020;-1.740;2023-08-06T07:41:52;1.65;;;1.05;;
51451;SDS011;37521;52.020;-1.740;2023-08-06T07:44:24;1.55;;;1.45;;
51451;SDS011;37521;52.020;-1.740;2023-08-06T07:46:58;2.38;;;0.80;;
51451;SDS011;37521;52.020;-1.740;2023-08-06T07:49:30;1.00;;;0.55;;
51451;SDS011;37521;52.020;-1.740;2023-08-06T07:52:12;1.75;;;0.95;;
51451;SDS011;37521;52.020;-1.740;2023-08-06T07:55:03;1.00;;;0.80;;
51451;SDS011;37521;52.020;-1.740;2023-08-06T07:57:37;0.98;;;0.80;;
51451;SDS011;37521;52.020;-1.740;2023-08-06T08:00:09;2.00;;;0.75;;
51451;SDS011;37521;52.020;-1.740;2023-08-06T08:02:47;0.55;;;0.28;;
51451;SDS011;37521;52.020;-1.740;2023-08-06T08:05:19;0.88;;;0.70;;
51451;SDS011;37521;52.020;-1.740;2023-08-06T08:07:49;1.23;;;0.70;;
51451;SDS011;37521;52.020;-1.740;2023-08-06T08:10:18;2.42;;;0.90;;
51451;SDS011;37521;52.020;-1.740;2023-08-06T08:12:47;2.35;;;0.70;;
51451;SDS011;37521;52.020;-1.740;2023-08-06T08:15:17;3.97;;;1.02;;
51451;SDS011;37521;52.020;-1.740;2023-08-06T08:17:54;0.55;;;0.50;;
51451;SDS011;37521;52.020;-1.740;2023-08-06T08:20:25;1.13;;;0.75;;
51451;SDS011;37521;52.020;-1.740;2023-08-06T08:22:59;1.85;;;0.60;;
51451;SDS011;37521;52.020;-1.740;2023-08-06T08:25:29;1.73;;;1.00;;
51451;SDS011;37521;52.020;-1.740;2023-08-06T08:28:04;1.05;;;0.85;;
51451;SDS011;37521;52.020;-1.740;2023-08-06T08:30:40;1.25;;;0.93;;
51451;SDS011;37521;52.020;-1.740;2023-08-06T08:33:12;3.00;;;0.80;;
51451;SDS011;37521;52.020;-1.740;2023-08-06T08:35:42;1.08;;;0.95;;
51451;SDS011;37521;52.020;-1.740;2023-08-06T08:38:14;1.35;;;0.88;;
51451;SDS011;37521;52.020;-1.740;2023-08-06T08:40:44;1.88;;;0.73;;
51451;SDS011;37521;52.020;-1.740;2023-08-06T08:43:15;1.13;;;0.70;;
51451;SDS011;37521;52.020;-1.740;2023-08-06T08:45:45;2.15;;;1.00;;
51451;SDS011;37521;52.020;-1.740;2023-08-06T08:48:25;0.77;;;0.55;;
51451;SDS011;37521;52.020;-1.740;2023-08-06T08:50:56;3.92;;;1.17;;
51451;SDS011;37521;52.020;-1.740;2023-08-06T08:53:27;1.23;;;0.73;;
51451;SDS011;37521;52.020;-1.740;2023-08-06T08:55:59;1.90;;;0.95;;
51451;SDS011;37521;52.020;-1.740;2023-08-06T08:58:36;0.95;;;0.85;;
51451;SDS011;37521;52.020;-1.740;2023-08-06T09:01:05;1.00;;;0.70;;
51451;SDS011;37521;52.020;-1.740;2023-08-06T09:03:38;0.50;;;0.50;;
51451;SDS011;37521;52.020;-1.740;2023-08-06T09:06:08;1.25;;;0.90;;
51451;SDS011;37521;52.020;-1.740;2023-08-06T09:08:40;2.00;;;0.73;;
51451;SDS011;37521;52.020;-1.740;2023-08-06T09:11:16;1.13;;;0.90;;
51451;SDS011;37521;52.020;-1.740;2023-08-06T09:13:45;1.88;;;0.82;;
51451;SDS011;37521;52.020;-1.740;2023-08-06T09:16:15;1.70;;;0.70;;
51451;SDS011;37521;52.020;-1.740;2023-08-06T09:18:51;1.13;;;0.60;;
51451;SDS011;37521;52.020;-1.740;2023-08-06T09:21:24;1.20;;;0.75;;
51451;SDS011;37521;52.020;-1.740;2023-08-06T09:29:20;0.60;;;0.60;;
51451;SDS011;37521;52.020;-1.740;2023-08-06T09:31:49;0.98;;;0.98;;
51451;SDS011;37521;52.020;-1.740;2023-08-06T09:34:22;1.23;;;0.95;;
51451;SDS011;37521;52.020;-1.740;2023-08-06T09:36:52;0.98;;;0.88;;
51451;SDS011;37521;52.020;-1.740;2023-08-06T09:39:25;1.20;;;0.77;;
51451;SDS011;37521;52.020;-1.740;2023-08-06T09:41:56;0.93;;;0.70;;
51451;SDS011;37521;52.020;-1.740;2023-08-06T09:44:28;1.02;;;0.80;;
51451;SDS011;37521;52.020;-1.740;2023-08-06T09:47:00;0.85;;;0.70;;
51451;SDS011;37521;52.020;-1.740;2023-08-06T09:52:30;1.83;;;0.70;;
51451;SDS011;37521;52.020;-1.740;2023-08-06T09:55:00;1.42;;;0.98;;
51451;SDS011;37521;52.020;-1.740;2023-08-06T09:57:30;0.95;;;0.65;;
51451;SDS011;37521;52.020;-1.740;2023-08-06T10:00:01;1.52;;;0.90;;
51451;SDS011;37521;52.020;-1.740;2023-08-06T10:02:51;1.80;;;1.00;;
51451;SDS011;37521;52.020;-1.740;2023-08-06T10:05:24;0.68;;;0.68;;
51451;SDS011;37521;52.020;-1.740;2023-08-06T10:07:55;1.80;;;0.80;;
51451;SDS011;37521;52.020;-1.740;2023-08-06T10:10:26;1.65;;;0.77;;
51451;SDS011;37521;52.020;-1.740;2023-08-06T10:13:00;1.85;;;0.60;;
51451;SDS011;37521;52.020;-1.740;2023-08-06T10:15:41;0.90;;;0.90;;
51451;SDS011;37521;52.020;-1.740;2023-08-06T10:18:14;3.63;;;1.00;;
51451;SDS011;37521;52.020;-1.740;2023-08-06T10:20:55;1.23;;;0.60;;
51451;SDS011;37521;52.020;-1.740;2023-08-06T10:23:32;2.38;;;1.23;;
51451;SDS011;37521;52.020;-1.740;2023-08-06T10:26:05;0.35;;;0.35;;
51451;SDS011;37521;52.020;-1.740;2023-08-06T10:28:35;2.78;;;1.20;;
51451;SDS011;37521;52.020;-1.740;2023-08-06T10:31:06;0.60;;;0.60;;
51451;SDS011;37521;52.020;-1.740;2023-08-06T10:33:42;1.50;;;0.68;;
51451;SDS011;37521;52.020;-1.740;2023-08-06T10:36:16;2.03;;;0.85;;
51451;SDS011;37521;52.020;-1.740;2023-08-06T10:38:50;3.15;;;0.80;;
51451;SDS011;37521;52.020;-1.740;2023-08-06T10:41:22;0.90;;;0.90;;
51451;SDS011;37521;52.020;-1.740;2023-08-06T10:44:05;1.33;;;1.13;;
51451;SDS011;37521;52.020;-1.740;2023-08-06T10:46:36;2.50;;;0.90;;
51451;SDS011;37521;52.020;-1.740;2023-08-06T10:49:07;0.95;;;0.70;;
51451;SDS011;37521;52.020;-1.740;2023-08-06T10:51:37;1.42;;;0.70;;
51451;SDS011;37521;52.020;-1.740;2023-08-06T10:54:09;0.60;;;0.60;;
51451;SDS011;37521;52.020;-1.740;2023-08-06T10:56:50;0.30;;;0.30;;
51451;SDS011;37521;52.020;-1.740;2023-08-06T10:59:22;0.77;;;0.50;;
51451;SDS011;37521;52.020;-1.740;2023-08-06T11:01:55;0.82;;;0.70;;
51451;SDS011;37521;52.020;-1.740;2023-08-06T11:04:30;1.33;;;0.63;;
51451;SDS011;37521;52.020;-1.740;2023-08-06T11:07:04;1.63;;;0.55;;
51451;SDS011;37521;52.020;-1.740;2023-08-06T11:09:38;0.75;;;0.45;;
51451;SDS011;37521;52.020;-1.740;2023-08-06T11:12:09;0.70;;;0.40;;
51451;SDS011;37521;52.020;-1.740;2023-08-06T11:14:42;1.38;;;0.80;;
51451;SDS011;37521;52.020;-1.740;2023-08-06T11:17:11;1.13;;;1.02;;
51451;SDS011;37521;52.020;-1.740;2023-08-06T11:19:41;0.88;;;0.88;;
51451;SDS011;37521;52.020;-1.740;2023-08-06T11:22:13;1.55;;;0.70;;
51451;SDS011;37521;52.020;-1.740;2023-08-06T11:24:44;1.00;;;0.90;;
51451;SDS011;37521;52.020;-1.740;2023-08-06T11:27:14;0.55;;;0.55;;
51451;SDS011;37521;52.020;-1.740;2023-08-06T11:29:45;1.23;;;0.80;;
51451;SDS011;37521;52.020;-1.740;2023-08-06T11:32:14;1.40;;;0.50;;
51451;SDS011;37521;52.020;-1.740;2023-08-06T11:34:45;0.95;;;0.88;;
51451;SDS011;37521;52.020;-1.740;2023-08-06T11:37:22;1.00;;;0.75;;
51451;SDS011;37521;52.020;-1.740;2023-08-06T11:39:54;0.85;;;0.40;;
51451;SDS011;37521;52.020;-1.740;2023-08-06T11:42:30;0.50;;;0.50;;
51451;SDS011;37521;52.020;-1.740;2023-08-06T11:45:05;0.50;;;0.47;;
51451;SDS011;37521;52.020;-1.740;2023-08-06T11:47:38;0.32;;;0.32;;
51451;SDS011;37521;52.020;-1.740;2023-08-06T11:50:12;1.58;;;0.57;;
51451;SDS011;37521;52.020;-1.740;2023-08-06T11:53:03;0.60;;;0.30;;
51451;SDS011;37521;52.020;-1.740;2023-08-06T11:55:46;0.77;;;0.32;;
51451;SDS011;37521;52.020;-1.740;2023-08-06T11:58:29;0.50;;;0.50;;
51451;SDS011;37521;52.020;-1.740;2023-08-06T12:00:58;0.32;;;0.32;;
51451;SDS011;37521;52.020;-1.740;2023-08-06T12:03:30;0.88;;;0.57;;
51451;SDS011;37521;52.020;-1.740;2023-08-06T12:06:10;0.40;;;0.40;;
51451;SDS011;37521;52.020;-1.740;2023-08-06T12:08:54;1.73;;;0.50;;
51451;SDS011;37521;52.020;-1.740;2023-08-06T12:11:28;0.82;;;0.50;;
51451;SDS011;37521;52.020;-1.740;2023-08-06T12:14:11;0.30;;;0.25;;
51451;SDS011;37521;52.020;-1.740;2023-08-06T12:17:11;0.52;;;0.52;;
51451;SDS011;37521;52.020;-1.740;2023-08-06T12:19:54;1.35;;;0.82;;
51451;SDS011;37521;52.020;-1.740;2023-08-06T12:22:31;0.50;;;0.50;;
51451;SDS011;37521;52.020;-1.740;2023-08-06T12:25:05;0.63;;;0.50;;
51451;SDS011;37521;52.020;-1.740;2023-08-06T12:27:40;0.70;;;0.70;;
51451;SDS011;37521;52.020;-1.740;2023-08-06T12:30:10;0.60;;;0.50;;
51451;SDS011;37521;52.020;-1.740;2023-08-06T12:32:40;1.45;;;0.85;;
51451;SDS011;37521;52.020;-1.740;2023-08-06T12:35:11;0.40;;;0.40;;
51451;SDS011;37521;52.020;-1.740;2023-08-06T12:37:41;0.32;;;0.32;;
51451;SDS011;37521;52.020;-1.740;2023-08-06T12:40:15;0.90;;;0.70;;
51451;SDS011;37521;52.020;-1.740;2023-08-06T12:43:02;0.32;;;0.32;;
51451;SDS011;37521;52.020;-1.740;2023-08-06T12:45:36;0.70;;;0.50;;
51451;SDS011;37521;52.020;-1.740;2023-08-06T12:48:06;0.65;;;0.50;;
51451;SDS011;37521;52.020;-1.740;2023-08-06T12:50:35;3.10;;;0.60;;
51451;SDS011;37521;52.020;-1.740;2023-08-06T12:53:05;1.67;;;1.02;;
51451;SDS011;37521;52.020;-1.740;2023-08-06T12:55:43;0.30;;;0.30;;
51451;SDS011;37521;52.020;-1.740;2023-08-06T12:58:20;0.73;;;0.50;;
51451;SDS011;37521;52.020;-1.740;2023-08-06T13:00:55;1.00;;;0.75;;
51451;SDS011;37521;52.020;-1.740;2023-08-06T13:03:37;1.00;;;0.45;;
51451;SDS011;37521;52.020;-1.740;2023-08-06T13:06:15;0.55;;;0.55;;
51451;SDS011;37521;52.020;-1.740;2023-08-06T13:08:50;0.80;;;0.60;;
51451;SDS011;37521;52.020;-1.740;2023-08-06T13:11:35;1.58;;;0.50;;
51451;SDS011;37521;52.020;-1.740;2023-08-06T13:14:15;0.82;;;0.30;;
51451;SDS011;37521;52.020;-1.740;2023-08-06T13:16:47;0.50;;;0.50;;
51451;SDS011;37521;52.020;-1.740;2023-08-06T13:19:27;0.70;;;0.40;;
51451;SDS011;37521;52.020;-1.740;2023-08-06T13:22:03;0.80;;;0.38;;
51451;SDS011;37521;52.020;-1.740;2023-08-06T13:24:38;0.40;;;0.40;;
51451;SDS011;37521;52.020;-1.740;2023-08-06T13:27:11;0.40;;;0.40;;
51451;SDS011;37521;52.020;-1.740;2023-08-06T13:29:41;1.17;;;0.30;;
51451;SDS011;37521;52.020;-1.740;2023-08-06T13:32:10;1.02;;;0.57;;
51451;SDS011;37521;52.020;-1.740;2023-08-06T13:34:40;1.48;;;0.60;;
51451;SDS011;37521;52.020;-1.740;2023-08-06T13:37:10;1.35;;;0.50;;
51451;SDS011;37521;52.020;-1.740;2023-08-06T13:39:39;1.33;;;0.45;;
51451;SDS011;37521;52.020;-1.740;2023-08-06T13:42:08;2.35;;;0.30;;
51451;SDS011;37521;52.020;-1.740;2023-08-06T13:44:39;0.57;;;0.45;;
51451;SDS011;37521;52.020;-1.740;2023-08-06T13:47:10;1.10;;;0.40;;
51451;SDS011;37521;52.020;-1.740;2023-08-06T13:49:39;0.45;;;0.40;;
51451;SDS011;37521;52.020;-1.740;2023-08-06T13:52:08;2.22;;;0.73;;
51451;SDS011;37521;52.020;-1.740;2023-08-06T13:54:47;0.73;;;0.47;;
51451;SDS011;37521;52.020;-1.740;2023-08-06T13:57:17;0.28;;;0.28;;
51451;SDS011;37521;52.020;-1.740;2023-08-06T13:59:47;1.10;;;0.45;;
51451;SDS011;37521;52.020;-1.740;2023-08-06T14:02:18;0.50;;;0.47;;
51451;SDS011;37521;52.020;-1.740;2023-08-06T14:04:47;3.70;;;0.60;;
51451;SDS011;37521;52.020;-1.740;2023-08-06T14:07:16;1.50;;;0.45;;
51451;SDS011;37521;52.020;-1.740;2023-08-06T14:09:45;4.07;;;0.88;;
51451;SDS011;37521;52.020;-1.740;2023-08-06T14:12:16;0.50;;;0.40;;
51451;SDS011;37521;52.020;-1.740;2023-08-06T14:14:46;0.82;;;0.80;;
51451;SDS011;37521;52.020;-1.740;2023-08-06T14:17:18;0.60;;;0.60;;
51451;SDS011;37521;52.020;-1.740;2023-08-06T14:19:48;0.50;;;0.50;;
51451;SDS011;37521;52.020;-1.740;2023-08-06T14:22:17;0.45;;;0.43;;
51451;SDS011;37521;52.020;-1.740;2023-08-06T14:24:47;1.85;;;0.70;;
51451;SDS011;37521;52.020;-1.740;2023-08-06T14:27:16;0.35;;;0.35;;
51451;SDS011;37521;52.020;-1.740;2023-08-06T14:29:48;0.68;;;0.50;;
51451;SDS011;37521;52.020;-1.740;2023-08-06T14:32:18;0.32;;;0.32;;
51451;SDS011;37521;52.020;-1.740;2023-08-06T14:34:48;1.13;;;0.52;;
51451;SDS011;37521;52.020;-1.740;2023-08-06T14:37:17;0.73;;;0.50;;
51451;SDS011;37521;52.020;-1.740;2023-08-06T14:39:47;0.85;;;0.50;;
51451;SDS011;37521;52.020;-1.740;2023-08-06T14:42:16;0.60;;;0.43;;
51451;SDS011;37521;52.020;-1.740;2023-08-06T14:44:46;0.45;;;0.45;;
51451;SDS011;37521;52.020;-1.740;2023-08-06T14:47:18;0.85;;;0.60;;
51451;SDS011;37521;52.020;-1.740;2023-08-06T14:49:48;0.82;;;0.50;;
51451;SDS011;37521;52.020;-1.740;2023-08-06T14:52:18;0.68;;;0.43;;
51451;SDS011;37521;52.020;-1.740;2023-08-06T14:54:47;0.70;;;0.55;;
51451;SDS011;37521;52.020;-1.740;2023-08-06T14:57:20;0.82;;;0.50;;
51451;SDS011;37521;52.020;-1.740;2023-08-06T14:59:55;1.13;;;0.77;;
51451;SDS011;37521;52.020;-1.740;2023-08-06T15:02:27;2.83;;;0.50;;
51451;SDS011;37521;52.020;-1.740;2023-08-06T15:05:02;0.63;;;0.45;;
51451;SDS011;37521;52.020;-1.740;2023-08-06T15:07:36;0.65;;;0.55;;
51451;SDS011;37521;52.020;-1.740;2023-08-06T15:10:05;1.60;;;0.80;;
51451;SDS011;37521;52.020;-1.740;2023-08-06T15:12:54;1.40;;;0.63;;
51451;SDS011;37521;52.020;-1.740;2023-08-06T15:15:26;0.60;;;0.60;;
51451;SDS011;37521;52.020;-1.740;2023-08-06T15:17:59;0.57;;;0.57;;